地図

経路データ

SID SEASON NUMBER BASIN SUBBASIN NAME ISO_TIME NATURE LAT LON WMO_WIND WMO_PRES WMO_AGENCY TRACK_TYPE DIST2LAND LANDFALL IFLAG USA_AGENCY USA_ATCF_ID USA_LAT USA_LON USA_RECORD USA_STATUS USA_WIND USA_PRES USA_SSHS USA_R34_NE USA_R34_SE USA_R34_SW USA_R34_NW USA_R50_NE USA_R50_SE USA_R50_SW USA_R50_NW USA_R64_NE USA_R64_SE USA_R64_SW USA_R64_NW USA_POCI USA_ROCI USA_RMW USA_EYE TOKYO_LAT TOKYO_LON TOKYO_GRADE TOKYO_WIND TOKYO_PRES TOKYO_R50_DIR TOKYO_R50_LONG TOKYO_R50_SHORT TOKYO_R30_DIR TOKYO_R30_LONG TOKYO_R30_SHORT TOKYO_LAND CMA_LAT CMA_LON CMA_CAT CMA_WIND CMA_PRES HKO_LAT HKO_LON HKO_CAT HKO_WIND HKO_PRES NEWDELHI_LAT NEWDELHI_LON NEWDELHI_GRADE NEWDELHI_WIND NEWDELHI_PRES NEWDELHI_CI NEWDELHI_DP NEWDELHI_POCI REUNION_LAT REUNION_LON REUNION_TYPE REUNION_WIND REUNION_PRES REUNION_TNUM REUNION_CI REUNION_RMW REUNION_R34_NE REUNION_R34_SE REUNION_R34_SW REUNION_R34_NW REUNION_R50_NE REUNION_R50_SE REUNION_R50_SW REUNION_R50_NW REUNION_R64_NE REUNION_R64_SE REUNION_R64_SW REUNION_R64_NW BOM_LAT BOM_LON BOM_TYPE BOM_WIND BOM_PRES BOM_TNUM BOM_CI BOM_RMW BOM_R34_NE BOM_R34_SE BOM_R34_SW BOM_R34_NW BOM_R50_NE BOM_R50_SE BOM_R50_SW BOM_R50_NW BOM_R64_NE BOM_R64_SE BOM_R64_SW BOM_R64_NW BOM_ROCI BOM_POCI BOM_EYE BOM_POS_METHOD BOM_PRES_METHOD NADI_LAT NADI_LON NADI_CAT NADI_WIND NADI_PRES WELLINGTON_LAT WELLINGTON_LON WELLINGTON_WIND WELLINGTON_PRES DS824_LAT DS824_LON DS824_STAGE DS824_WIND DS824_PRES TD9636_LAT TD9636_LON TD9636_STAGE TD9636_WIND TD9636_PRES TD9635_LAT TD9635_LON TD9635_WIND TD9635_PRES TD9635_ROCI NEUMANN_LAT NEUMANN_LON NEUMANN_CLASS NEUMANN_WIND NEUMANN_PRES MLC_LAT MLC_LON MLC_CLASS MLC_WIND MLC_PRES USA_GUST BOM_GUST BOM_GUST_PER REUNION_GUST REUNION_GUST_PER USA_SEAHGT USA_SEARAD_NE USA_SEARAD_SE USA_SEARAD_SW USA_SEARAD_NW STORM_SPEED STORM_DIR
1869239N34314 1869 13 NA NA NOT_NAMED 1869-08-27 00:00:00 TS 34.1000 -46.0000 main 1516 1509 _____________O -1 34.1000 -46.0000 HU 65 5 64
1869239N34314 1869 13 NA NA NOT_NAMED 1869-08-27 03:00:00 TS 34.2001 -45.7501 main 1512 1509 _____________P -1 34.2001 -45.7501 HU 65 5 64
1869239N34314 1869 13 NA NA NOT_NAMED 1869-08-27 06:00:00 TS 34.3000 -45.5000 main 1513 1506 _____________O -1 34.3000 -45.5000 HU 65 5 64
1869239N34314 1869 13 NA NA NOT_NAMED 1869-08-27 09:00:00 TS 34.4000 -45.2499 main 1513 1507 _____________P -1 34.4000 -45.2499 HU 65 5 64
1869239N34314 1869 13 NA NA NOT_NAMED 1869-08-27 12:00:00 TS 34.5000 -45.0000 main 1511 1504 _____________O -1 34.5000 -45.0000 HU 65 5 64
1869239N34314 1869 13 NA NA NOT_NAMED 1869-08-27 15:00:00 TS 34.5999 -44.7499 main 1512 1506 _____________P -1 34.5999 -44.7499 HU 65 5 64
1869239N34314 1869 13 NA NA NOT_NAMED 1869-08-27 18:00:00 TS 34.7000 -44.5000 main 1510 1504 _____________O -1 34.7000 -44.5000 HU 65 5 64
1869239N34314 1869 13 NA NA NOT_NAMED 1869-08-27 21:00:00 TS 34.7999 -44.2499 main 1512 1507 _____________P -1 34.7999 -44.2499 HU 65 5 64
1869239N34314 1869 13 NA NA NOT_NAMED 1869-08-28 00:00:00 TS 34.9000 -44.0000 main 1511 1505 _____________O -1 34.9000 -44.0000 HU 65 5 64
1869239N34314 1869 13 NA NA NOT_NAMED 1869-08-28 03:00:00 TS 34.9999 -43.7499 main 1514 1509 _____________P -1 34.9999 -43.7499 HU 65 5 64
1869239N34314 1869 13 NA NA NOT_NAMED 1869-08-28 06:00:00 TS 35.1000 -43.5000 main 1513 1508 _____________O -1 35.1000 -43.5000 HU 65 5 63
1869239N34314 1869 13 NA NA NOT_NAMED 1869-08-28 09:00:00 TS 35.2074 -43.2500 main 1517 1512 _____________P -1 35.2074 -43.2500 HU 67 5 64
1869239N34314 1869 13 NA NA NOT_NAMED 1869-08-28 12:00:00 TS 35.3000 -43.0000 main 1516 1516 _____________O -1 35.3000 -43.0000 HU 70 4 71
1869239N34314 1869 13 NA NA NOT_NAMED 1869-08-28 15:00:00 TS 35.3499 -42.7498 main 1531 1521 _____________P -1 35.3499 -42.7498 HU 70 4 76
1869239N34314 1869 13 NA NA NOT_NAMED 1869-08-28 18:00:00 TS 35.4000 -42.5000 main 1531 1531 _____________O -1 35.4000 -42.5000 HU 70 4 71
1869239N34314 1869 13 NA NA NOT_NAMED 1869-08-28 21:00:00 TS 35.4924 -42.2500 main 1536 1531 _____________P -1 35.4924 -42.2500 HU 70 5 64
1869239N34314 1869 13 NA NA NOT_NAMED 1869-08-29 00:00:00 TS 35.6000 -42.0000 main 1537 1532 _____________O -1 35.6000 -42.0000 HU 70 5 63
1869239N34314 1869 13 NA NA NOT_NAMED 1869-08-29 03:00:00 TS 35.6999 -41.7499 main 1543 1539 _____________P -1 35.6999 -41.7499 HU 70 5 64
1869239N34314 1869 13 NA NA NOT_NAMED 1869-08-29 06:00:00 TS 35.8000 -41.5000 main 1544 1540 _____________O -1 35.8000 -41.5000 HU 70 4 63
1869239N34314 1869 13 NA NA NOT_NAMED 1869-08-29 09:00:00 TS 35.8998 -41.2649 main 1545 1545 _____________P -1 35.8998 -41.2649 HU 70 5 64
1869239N34314 1869 13 NA NA NOT_NAMED 1869-08-29 12:00:00 TS 36.0000 -41.0000 main 1552 1552 _____________O -1 36.0000 -41.0000 HU 70 996 5 68
1869239N34314 1869 13 NA NA NOT_NAMED 1869-08-29 15:00:00 TS 36.1001 -40.6575 main 1560 1560 _____________P -1 36.1001 -40.6575 HU 70 6 71
1869239N34314 1869 13 NA NA NOT_NAMED 1869-08-29 18:00:00 TS 36.2000 -40.3000 main 1573 1573 _____________O -1 36.2000 -40.3000 HU 70 6 69
1869239N34314 1869 13 NA NA NOT_NAMED 1869-08-29 21:00:00 TS 36.2998 -39.9999 main 1581 1581 _____________P -1 36.2998 -39.9999 HU 70 5 68
1869239N34314 1869 13 NA NA NOT_NAMED 1869-08-30 00:00:00 TS 36.4000 -39.7000 main 1590 1590 _____________O -1 36.4000 -39.7000 HU 70 6 69
1869239N34314 1869 13 NA NA NOT_NAMED 1869-08-30 03:00:00 TS 36.5000 -39.3500 main 1605 1602 _____________P -1 36.5000 -39.3500 HU 70 6 70
1869239N34314 1869 13 NA NA NOT_NAMED 1869-08-30 06:00:00 TS 36.6000 -39.0000 main 1614 1614 _____________O -1 36.6000 -39.0000 HU 70 6 68
1869239N34314 1869 13 NA NA NOT_NAMED 1869-08-30 09:00:00 TS 36.7073 -38.7000 main 1624 1622 _____________P -1 36.7073 -38.7000 HU 70 5 67
1869239N34314 1869 13 NA NA NOT_NAMED 1869-08-30 12:00:00 TS 36.8000 -38.4000 main 1634 1634 _____________O -1 36.8000 -38.4000 HU 70 5 74
1869239N34314 1869 13 NA NA NOT_NAMED 1869-08-30 15:00:00 TS 36.8575 -38.0574 main 1645 1645 _____________P -1 36.8575 -38.0574 HU 67 6 80
1869239N34314 1869 13 NA NA NOT_NAMED 1869-08-30 18:00:00 TS 36.9000 -37.7000 main 1669 1669 _____________O -1 36.9000 -37.7000 HU 65 6 81
1869239N34314 1869 13 NA NA NOT_NAMED 1869-08-30 21:00:00 TS 36.9498 -37.3574 main 1688 1687 _____________P -1 36.9498 -37.3574 HU 65 6 80
1869239N34314 1869 13 NA NA NOT_NAMED 1869-08-31 00:00:00 TS 37.0000 -37.0000 main 1705 1705 _____________O -1 37.0000 -37.0000 HU 65 6 81
1869239N34314 1869 13 NA NA NOT_NAMED 1869-08-31 03:00:00 TS 37.0500 -36.6000 main 1723 1723 _____________P -1 37.0500 -36.6000 HU 62 6 81
1869239N34314 1869 13 NA NA NOT_NAMED 1869-08-31 06:00:00 TS 37.1000 -36.2000 main 1749 1749 _____________O -1 37.1000 -36.2000 TS 60 6 79
1869239N34314 1869 13 NA NA NOT_NAMED 1869-08-31 09:00:00 TS 37.1723 -35.8428 main 1767 1767 _____________P -1 37.1723 -35.8428 TS 57 6 80
1869239N34314 1869 13 NA NA NOT_NAMED 1869-08-31 12:00:00 TS 37.2000 -35.5000 main 1786 1786 _____________O -1 37.2000 -35.5000 TS 55 6 96
1869239N34314 1869 13 NA NA NOT_NAMED 1869-08-31 15:00:00 TS 37.1150 -35.1422 main 1820 1820 _____________P -1 37.1150 -35.1422 TS 52 6 110
1869239N34314 1869 13 NA NA NOT_NAMED 1869-08-31 18:00:00 TS 37.0000 -34.8000 main 1847 1847 _____________O -1 37.0000 -34.8000 TS 50 5 108
1869239N34314 1869 13 NA NA NOT_NAMED 1869-08-31 21:00:00 TS 36.9424 -34.4927 main 1875 1875 _____________P -1 36.9424 -34.4927 TS 47 5 102
1869239N34314 1869 13 NA NA NOT_NAMED 1869-09-01 00:00:00 TS 36.9000 -34.2000 main 1884 1860 _____________O -1 36.9000 -34.2000 TS 45 5 101
1869239N34314 1869 13 NA NA NOT_NAMED 1869-09-01 03:00:00 TS 36.8499 -33.9000 main 1855 1831 _____________P -1 36.8499 -33.9000 TS 42 5 102
1869239N34314 1869 13 NA NA NOT_NAMED 1869-09-01 06:00:00 TS 36.8000 -33.6000 main 1831 1807 _____________O -1 36.8000 -33.6000 TS 40 5 101
1869239N34314 1869 13 NA NA NOT_NAMED 1869-09-01 09:00:00 TS 36.7574 -33.3001 main 1807 1778 _____________P -1 36.7574 -33.3001 TS 37 5 102
1869239N34314 1869 13 NA NA NOT_NAMED 1869-09-01 12:00:00 TS 36.7000 -33.0000 main 1778 1749 _____________O -1 36.7000 -33.0000 TS 35 5 107
1869239N34314 1869 13 NA NA NOT_NAMED 1869-09-01 15:00:00 TS 36.6074 -32.7000 main 1749 1720 _____________P -1 36.6074 -32.7000 TS 35 5 113
1869239N34314 1869 13 NA NA NOT_NAMED 1869-09-01 18:00:00 TS 36.5000 -32.4000 main 1720 1692 _____________O -1 36.5000 -32.4000 TS 35 5 116
1869239N34314 1869 13 NA NA NOT_NAMED 1869-09-01 21:00:00 TS 36.3699 -32.0997 main 1692 1663 _____________P -1 36.3699 -32.0997 TS 35 5 112
1869239N34314 1869 13 NA NA NOT_NAMED 1869-09-02 00:00:00 TS 36.3000 -31.8000 main 1663 1645 _____________O -1 36.3000 -31.8000 TS 35 5 90
1869239N34314 1869 13 NA NA NOT_NAMED 1869-09-02 03:00:00 TS 36.3700 -31.4928 main 1645 1627 _____________P -1 36.3700 -31.4928 TS 32 5 68
1869239N34314 1869 13 NA NA NOT_NAMED 1869-09-02 06:00:00 TS 36.5000 -31.2000 main 1627 1617 _____________O -1 36.5000 -31.2000 TD 30 5 62
1869239N34314 1869 13 NA NA NOT_NAMED 1869-09-02 09:00:00 TS 36.5922 -30.9722 main 1617 1600 _____________P -1 36.5922 -30.9722 TD 30 4 64
1869239N34314 1869 13 NA NA NOT_NAMED 1869-09-02 12:00:00 TS 36.7000 -30.7000 main 1600 1576 _____________O -1 36.7000 -30.7000 TD 30 6 66
1869239N34314 1869 13 NA NA NOT_NAMED 1869-09-02 15:00:00 TS 36.8427 -30.2726 main 1576 1552 _____________P -1 36.8427 -30.2726 TD 30 8 67
1869239N34314 1869 13 NA NA NOT_NAMED 1869-09-02 18:00:00 ET 37.0000 -29.8000 main 1552 1529 _____________O -1 37.0000 -29.8000 EX 30 8 68
1869239N34314 1869 13 NA NA NOT_NAMED 1869-09-02 21:00:00 ET 37.1425 -29.3624 main 1529 1515 _____________P -1 37.1425 -29.3624 EX 30 7 65
1869239N34314 1869 13 NA NA NOT_NAMED 1869-09-03 00:00:00 ET 37.3000 -29.0000 main 1515 1508 _____________O -1 37.3000 -29.0000 EX 30 6 53
1869239N34314 1869 13 NA NA NOT_NAMED 1869-09-03 03:00:00 ET 37.4998 -28.7624 main 1515 1508 _____________P -1 37.4998 -28.7624 EX 30 5 38
1869239N34314 1869 13 NA NA NOT_NAMED 1869-09-03 06:00:00 ET 37.7000 -28.6000 main 1515 1515 _____________O -1 37.7000 -28.6000 EX 30 4 35
1869239N34314 1869 13 NA NA NOT_NAMED 1869-09-03 09:00:00 ET 37.8574 -28.4498 main 1517 1517 _____________P -1 37.8574 -28.4498 EX 30 4 38
1869239N34314 1869 13 NA NA NOT_NAMED 1869-09-03 12:00:00 ET 38.0000 -28.3000 main 1517 1511 _____________O -1 38.0000 -28.3000 EX 30 4 43
1869239N34314 1869 13 NA NA NOT_NAMED 1869-09-03 15:00:00 ET 38.1476 -28.1128 main 1512 1512 _____________P -1 38.1476 -28.1128 EX 30 4 46
1869239N34314 1869 13 NA NA NOT_NAMED 1869-09-03 18:00:00 ET 38.3000 -27.9000 main 1515 _____________O -1 38.3000 -27.9000 EX 30 5 48

IBTrACS Databaseについて

本データベースは、米国NOAAが公開する1842年以降の世界の熱帯低気圧のベストトラックデータアーカイブInternational Best Track Archive for Climate Stewardship (IBTrACS)を、ウェブで閲覧しやすい形式に変換したものです。

最終更新日:2021-10-08